createdAt,value
2022-10-31T00:00:50.193Z,99146.09
2022-10-31T00:03:18.621Z,99146.44
2022-10-31T00:05:48.281Z,99140.56
2022-10-31T00:08:16.479Z,99148.81
2022-10-31T00:10:46.743Z,99144.97
2022-10-31T00:13:15.945Z,99140.16
2022-10-31T00:15:43.795Z,99141.97
2022-10-31T00:18:12.561Z,99146.91
2022-10-31T00:20:41.100Z,99138.75
2022-10-31T00:23:09.082Z,99140.22
2022-10-31T00:25:38.428Z,99145.00
2022-10-31T00:28:09.406Z,99146.28
2022-10-31T00:30:37.180Z,99148.69
2022-10-31T00:33:05.456Z,99146.25
2022-10-31T00:35:33.305Z,99143.63
2022-10-31T00:38:01.318Z,99146.31
2022-10-31T00:40:29.140Z,99140.22
2022-10-31T00:42:57.111Z,99144.31
2022-10-31T00:45:26.486Z,99143.38
2022-10-31T00:47:54.659Z,99137.53
2022-10-31T00:50:22.522Z,99154.94
2022-10-31T00:52:50.245Z,99147.25
2022-10-31T00:55:18.475Z,99147.00
2022-10-31T00:57:48.437Z,99147.47
2022-10-31T01:00:16.995Z,99143.63
2022-10-31T01:02:46.564Z,99142.19
2022-10-31T01:05:14.658Z,99137.81
2022-10-31T01:07:43.201Z,99142.41
2022-10-31T01:10:11.732Z,99138.91
2022-10-31T01:12:39.776Z,99143.13
2022-10-31T01:15:09.257Z,99142.78
2022-10-31T01:17:36.995Z,99143.25
2022-10-31T01:20:07.797Z,99139.69
2022-10-31T01:22:36.069Z,99136.84
2022-10-31T01:25:04.673Z,99137.44
2022-10-31T01:27:33.291Z,99143.78
2022-10-31T01:30:01.059Z,99143.25
2022-10-31T01:32:29.755Z,99132.44
2022-10-31T01:34:57.474Z,99133.75
2022-10-31T01:37:26.581Z,99140.28
2022-10-31T01:39:54.313Z,99139.34
2022-10-31T01:42:24.104Z,99136.47
2022-10-31T01:44:59.038Z,99135.53
2022-10-31T01:47:39.394Z,99134.22
2022-10-31T01:50:14.185Z,99131.53
2022-10-31T01:52:46.555Z,99130.47
2022-10-31T01:55:18.293Z,99126.50
2022-10-31T01:57:50.359Z,99130.09
2022-10-31T02:00:19.802Z,99120.09
2022-10-31T02:02:48.509Z,99126.25
2022-10-31T02:05:19.605Z,99127.56
2022-10-31T02:07:55.522Z,99119.72
2022-10-31T02:10:30.723Z,99118.72
2022-10-31T02:13:02.211Z,99121.00
2022-10-31T02:15:31.834Z,99113.28
2022-10-31T02:18:00.590Z,99123.78
2022-10-31T02:20:34.489Z,99132.50
2022-10-31T02:23:53.962Z,99122.81
2022-10-31T02:26:46.901Z,99130.81
2022-10-31T02:29:42.145Z,99124.78
2022-10-31T02:32:16.878Z,99134.19
2022-10-31T02:34:53.522Z,99129.84
2022-10-31T02:37:28.077Z,99132.41
2022-10-31T02:40:03.271Z,99125.50
2022-10-31T02:42:55.356Z,99127.69
2022-10-31T02:45:29.370Z,99126.88
2022-10-31T02:48:04.077Z,99129.53
2022-10-31T02:50:36.078Z,99125.78
2022-10-31T02:53:05.198Z,99126.38
2022-10-31T02:55:49.255Z,99123.59
2022-10-31T02:58:21.699Z,99120.31
2022-10-31T03:01:00.933Z,99124.44
2022-10-31T03:03:37.238Z,99121.91
2022-10-31T03:06:15.643Z,99119.13
2022-10-31T03:08:52.587Z,99118.38
2022-10-31T03:11:25.947Z,99116.94
2022-10-31T03:14:02.964Z,99113.38
2022-10-31T03:16:42.049Z,99112.69
2022-10-31T03:19:14.481Z,99122.94
2022-10-31T03:21:46.731Z,99125.25
2022-10-31T03:24:17.007Z,99119.72
2022-10-31T03:26:51.786Z,99114.78
2022-10-31T03:29:24.186Z,99119.22
2022-10-31T03:31:56.660Z,99125.25
2022-10-31T03:34:26.217Z,99127.66
2022-10-31T03:36:58.253Z,99123.66
2022-10-31T03:39:26.522Z,99126.34
2022-10-31T03:41:59.451Z,99129.09
2022-10-31T03:44:30.028Z,99122.59
2022-10-31T03:47:02.614Z,99127.47
2022-10-31T03:49:33.644Z,99131.72
2022-10-31T03:52:07.554Z,99130.06
2022-10-31T03:54:42.461Z,99126.00
2022-10-31T03:57:20.502Z,99129.66
2022-10-31T03:59:53.645Z,99123.09
2022-10-31T04:02:24.765Z,99117.53
2022-10-31T04:04:54.687Z,99122.75
2022-10-31T04:07:25.613Z,99123.13
2022-10-31T04:09:54.468Z,99125.69
2022-10-31T04:12:26.053Z,99124.03
2022-10-31T04:15:09.184Z,99120.94
2022-10-31T04:17:42.208Z,99119.00
2022-10-31T04:20:12.418Z,99116.19
2022-10-31T04:22:40.993Z,99106.50
2022-10-31T04:25:09.968Z,99124.25
2022-10-31T04:27:39.399Z,99114.03
2022-10-31T04:30:10.263Z,99115.69
2022-10-31T04:32:40.949Z,99105.28
2022-10-31T04:35:09.327Z,99108.94
2022-10-31T04:37:38.575Z,99104.03
2022-10-31T04:40:07.244Z,99109.66
2022-10-31T04:42:43.923Z,99100.25
2022-10-31T04:45:15.506Z,99097.63
2022-10-31T04:47:46.423Z,99100.06
2022-10-31T04:50:14.314Z,99090.88
2022-10-31T04:52:44.518Z,99087.28
2022-10-31T04:55:15.716Z,99086.63
2022-10-31T04:58:02.262Z,99091.34
2022-10-31T05:00:30.517Z,99091.34
2022-10-31T05:03:00.143Z,99077.69
2022-10-31T05:05:31.061Z,99084.72
2022-10-31T05:08:02.779Z,99080.56
2022-10-31T05:10:33.074Z,99076.97
2022-10-31T05:13:04.435Z,99076.66
2022-10-31T05:15:41.830Z,99073.31
2022-10-31T05:18:28.234Z,99078.31
2022-10-31T05:21:05.255Z,99075.47
2022-10-31T05:23:38.420Z,99079.91
2022-10-31T05:26:08.760Z,99078.19
2022-10-31T05:28:38.600Z,99080.00
2022-10-31T05:31:06.694Z,99078.88
2022-10-31T05:33:34.428Z,99082.16
2022-10-31T05:36:20.459Z,99076.53
2022-10-31T05:39:15.719Z,99070.94
2022-10-31T05:41:48.239Z,99076.19
2022-10-31T05:44:26.417Z,99064.41
2022-10-31T05:47:02.596Z,99066.72
2022-10-31T05:49:53.397Z,99060.25
2022-10-31T05:52:36.688Z,99062.75
2022-10-31T05:55:18.988Z,99056.63
2022-10-31T05:58:03.905Z,99060.91
2022-10-31T06:00:32.907Z,99061.50
2022-10-31T06:05:57.331Z,99069.72
2022-10-31T06:08:33.800Z,99063.16
2022-10-31T06:11:07.401Z,99060.97
2022-10-31T06:14:04.566Z,99066.03
2022-10-31T06:16:51.759Z,99064.28
2022-10-31T06:19:37.996Z,99058.00
2022-10-31T06:22:06.352Z,99059.31
2022-10-31T06:24:34.795Z,99056.13
2022-10-31T06:27:03.892Z,99061.03
2022-10-31T06:29:32.280Z,99060.69
2022-10-31T06:32:08.091Z,99060.72
2022-10-31T06:34:40.669Z,99060.84
2022-10-31T06:37:10.143Z,99060.13
2022-10-31T06:39:40.315Z,99060.59
2022-10-31T06:42:12.950Z,99066.84
2022-10-31T06:44:40.696Z,99065.81
2022-10-31T06:48:10.938Z,99068.19
2022-10-31T06:50:36.015Z,99063.00
2022-10-31T06:53:04.097Z,99068.50
2022-10-31T06:55:32.245Z,99069.47
2022-10-31T06:58:03.297Z,99071.00
2022-10-31T07:00:34.508Z,99073.38
2022-10-31T07:03:11.752Z,99068.13
2022-10-31T07:05:39.672Z,99075.09
2022-10-31T07:08:10.333Z,99076.84
2022-10-31T07:10:40.658Z,99081.34
2022-10-31T07:13:14.320Z,99071.72
2022-10-31T07:15:47.361Z,99072.47
2022-10-31T07:18:15.110Z,99076.81
2022-10-31T07:20:43.987Z,99081.28
2022-10-31T07:23:13.409Z,99079.66
2022-10-31T07:25:43.421Z,99076.47
2022-10-31T07:28:21.025Z,99081.84
2022-10-31T07:30:53.653Z,99085.38
2022-10-31T07:33:22.725Z,99083.81
2022-10-31T07:36:28.950Z,99083.56
2022-10-31T07:39:03.234Z,99083.19
2022-10-31T07:41:32.592Z,99078.81
2022-10-31T07:44:01.761Z,99076.47
2022-10-31T07:46:47.733Z,99076.22
2022-10-31T07:49:38.400Z,99082.19
2022-10-31T07:52:26.360Z,99080.50
2022-10-31T07:55:12.811Z,99076.78
2022-10-31T07:57:40.650Z,99078.81
2022-10-31T08:00:12.017Z,99077.41
2022-10-31T08:02:42.886Z,99075.94
2022-10-31T08:05:48.967Z,99072.25
2022-10-31T08:08:35.999Z,99063.63
2022-10-31T08:11:06.459Z,99061.56
2022-10-31T08:13:34.560Z,99070.00
2022-10-31T08:16:05.139Z,99073.38
2022-10-31T08:18:38.519Z,99066.13
2022-10-31T08:21:08.382Z,99067.66
2022-10-31T08:23:36.908Z,99083.66
2022-10-31T08:26:06.956Z,99078.91
2022-10-31T08:28:34.840Z,99070.56
2022-10-31T08:31:05.772Z,99067.78
2022-10-31T08:33:42.201Z,99065.28
2022-10-31T08:36:29.846Z,99060.19
2022-10-31T08:39:26.678Z,99057.84
2022-10-31T08:41:54.411Z,99053.22
2022-10-31T08:44:22.280Z,99064.94
2022-10-31T08:46:51.483Z,99057.28
2022-10-31T08:49:19.354Z,99053.59
2022-10-31T08:51:49.697Z,99052.75
2022-10-31T08:54:18.205Z,99050.94
2022-10-31T08:57:15.014Z,99043.69
2022-10-31T08:59:45.980Z,99042.25
2022-10-31T09:02:28.097Z,99033.69
2022-10-31T09:05:00.716Z,99035.22
2022-10-31T09:07:29.193Z,99038.34
2022-10-31T09:09:57.688Z,99034.81
2022-10-31T09:12:26.035Z,99047.00
2022-10-31T09:15:19.945Z,99039.41
2022-10-31T09:17:59.200Z,99048.56
2022-10-31T09:20:40.794Z,99043.50
2022-10-31T09:23:12.007Z,99041.81
2022-10-31T09:25:43.958Z,99029.28
2022-10-31T09:28:33.250Z,99043.22
2022-10-31T09:31:19.634Z,99025.00
2022-10-31T09:34:09.135Z,99025.53
2022-10-31T09:36:37.033Z,99030.91
2022-10-31T09:39:06.150Z,99020.41
2022-10-31T09:41:57.610Z,99018.16
2022-10-31T09:44:35.789Z,99028.72
2022-10-31T09:47:10.053Z,99027.81
2022-10-31T09:50:04.440Z,99020.78
2022-10-31T09:52:35.543Z,99028.06
2022-10-31T09:55:16.505Z,99016.53
2022-10-31T09:57:44.783Z,99018.75
2022-10-31T10:00:18.234Z,99008.59
2022-10-31T10:02:51.734Z,99019.44
2022-10-31T10:05:24.320Z,99015.88
2022-10-31T10:08:01.969Z,99023.41
2022-10-31T10:10:53.194Z,99015.03
2022-10-31T10:14:08.990Z,99017.00
2022-10-31T10:16:49.407Z,99018.22
2022-10-31T10:19:30.644Z,99015.72
2022-10-31T10:22:10.437Z,99007.75
2022-10-31T10:25:07.054Z,99004.22
2022-10-31T10:27:46.153Z,99008.63
2022-10-31T10:30:18.164Z,99005.91
2022-10-31T10:32:51.901Z,99001.69
2022-10-31T10:35:26.516Z,99001.50
2022-10-31T10:38:04.186Z,98990.53
2022-10-31T10:40:32.109Z,98996.06
2022-10-31T10:43:24.731Z,98987.41
2022-10-31T10:46:18.495Z,98997.22
2022-10-31T10:48:55.862Z,98988.69
2022-10-31T10:51:46.313Z,98979.19
2022-10-31T10:54:43.154Z,98979.31
2022-10-31T10:57:22.453Z,98974.75
2022-10-31T10:59:50.809Z,98968.66
2022-10-31T11:02:23.800Z,98964.59
2022-10-31T11:04:53.823Z,98962.88
2022-10-31T11:07:21.696Z,98958.09
2022-10-31T11:09:50.996Z,98953.63
2022-10-31T11:12:22.944Z,98948.13
2022-10-31T11:14:54.424Z,98945.66
2022-10-31T11:17:29.813Z,98928.34
2022-10-31T11:20:07.476Z,98925.81
2022-10-31T11:22:35.244Z,98934.34
2022-10-31T11:25:22.597Z,98924.56
2022-10-31T11:28:01.176Z,98926.78
2022-10-31T11:30:30.069Z,98934.50
2022-10-31T11:32:59.034Z,98921.53
2022-10-31T11:35:27.859Z,98918.19
2022-10-31T11:37:59.765Z,98912.53
2022-10-31T11:40:31.236Z,98903.09
2022-10-31T11:43:00.777Z,98901.69
2022-10-31T11:45:33.573Z,98893.88
2022-10-31T11:48:04.385Z,98898.03
2022-10-31T11:50:38.059Z,98891.06
2022-10-31T11:53:17.037Z,98885.00
2022-10-31T11:55:47.576Z,98881.31
2022-10-31T11:58:26.072Z,98878.63
2022-10-31T12:00:56.213Z,98877.53
2022-10-31T12:03:46.874Z,98877.22
2022-10-31T12:06:19.880Z,98884.28
2022-10-31T12:08:48.409Z,98875.16
2022-10-31T12:11:33.770Z,98877.78
2022-10-31T12:14:16.017Z,98867.56
2022-10-31T12:16:50.297Z,98869.91
2022-10-31T12:19:27.263Z,98864.53
2022-10-31T12:22:15.764Z,98856.94
2022-10-31T12:25:03.837Z,98849.88
2022-10-31T12:27:47.466Z,98853.38
2022-10-31T12:30:21.137Z,98842.44
2022-10-31T12:33:09.449Z,98837.75
2022-10-31T12:35:48.502Z,98832.03
2022-10-31T12:38:44.660Z,98827.81
2022-10-31T12:41:26.492Z,98826.34
2022-10-31T12:44:02.157Z,98818.28
2022-10-31T12:46:52.841Z,98824.50
2022-10-31T12:49:34.871Z,98819.13
2022-10-31T12:52:16.229Z,98812.25
2022-10-31T12:55:04.764Z,98810.69
2022-10-31T12:57:38.092Z,98812.78
2022-10-31T13:00:15.314Z,98799.00
2022-10-31T13:02:48.518Z,98786.25
2022-10-31T13:05:21.491Z,98786.44
2022-10-31T13:07:55.606Z,98782.66
2022-10-31T13:10:27.712Z,98786.34
2022-10-31T13:12:57.583Z,98778.72
2022-10-31T13:15:29.779Z,98774.09
2022-10-31T13:18:03.072Z,98776.63
2022-10-31T13:20:34.189Z,98768.78
2022-10-31T13:23:29.721Z,98768.69
2022-10-31T13:26:01.943Z,98748.88
2022-10-31T13:28:36.299Z,98749.34
2022-10-31T13:31:05.605Z,98747.78
2022-10-31T13:33:40.532Z,98750.63
2022-10-31T13:36:33.395Z,98743.41
2022-10-31T13:39:12.457Z,98742.69
2022-10-31T13:41:47.843Z,98744.41
2022-10-31T13:44:19.851Z,98744.63
2022-10-31T13:46:49.200Z,98746.22
2022-10-31T13:49:37.787Z,98749.06
2022-10-31T13:52:16.835Z,98747.03
2022-10-31T13:54:46.170Z,98741.09
2022-10-31T13:57:24.229Z,98744.13
2022-10-31T13:59:54.517Z,98745.66
2022-10-31T14:02:28.836Z,98740.28
2022-10-31T14:05:00.044Z,98740.66
2022-10-31T14:07:28.914Z,98730.63
2022-10-31T14:10:00.512Z,98712.72
2022-10-31T14:12:32.844Z,98719.13
2022-10-31T14:15:05.895Z,98725.06
2022-10-31T14:17:46.886Z,98725.88
2022-10-31T14:20:35.013Z,98716.09
2022-10-31T14:23:14.139Z,98712.59
2022-10-31T14:25:41.862Z,98710.56
2022-10-31T14:28:22.175Z,98711.72
2022-10-31T14:30:54.965Z,98715.06
2022-10-31T14:33:27.592Z,98707.66
2022-10-31T14:36:02.684Z,98713.03
2022-10-31T14:38:56.985Z,98702.31
2022-10-31T14:41:42.347Z,98702.53
2022-10-31T14:44:48.799Z,98704.53
2022-10-31T14:47:29.463Z,98705.81
2022-10-31T14:50:24.119Z,98699.00
2022-10-31T14:53:01.146Z,98692.97
2022-10-31T14:55:31.564Z,98694.09
2022-10-31T14:58:03.932Z,98691.19
2022-10-31T15:00:34.322Z,98686.75
2022-10-31T15:03:13.228Z,98686.59
2022-10-31T15:05:48.317Z,98686.97
2022-10-31T15:08:29.588Z,98690.03
2022-10-31T15:11:00.297Z,98692.84
2022-10-31T15:13:28.725Z,98693.47
2022-10-31T15:15:57.827Z,98689.78
2022-10-31T15:18:29.577Z,98689.59
2022-10-31T15:20:59.442Z,98684.75
2022-10-31T15:23:29.900Z,98678.56
2022-10-31T15:26:02.106Z,98681.56
2022-10-31T15:28:32.327Z,98689.25
2022-10-31T15:31:02.797Z,98689.31
2022-10-31T15:33:38.322Z,98688.13
2022-10-31T15:36:25.509Z,98688.88
2022-10-31T15:38:59.088Z,98683.88
2022-10-31T15:41:32.308Z,98681.59
2022-10-31T15:44:06.157Z,98676.09
2022-10-31T15:46:34.880Z,98679.84
2022-10-31T15:49:05.001Z,98679.00
2022-10-31T15:51:38.268Z,98676.59
2022-10-31T15:54:06.209Z,98687.66
2022-10-31T15:56:34.300Z,98676.34
2022-10-31T15:59:03.937Z,98671.38
2022-10-31T16:01:33.698Z,98672.00
2022-10-31T16:04:04.454Z,98674.81
2022-10-31T16:06:34.970Z,98668.06
2022-10-31T16:09:02.870Z,98662.44
2022-10-31T16:11:36.433Z,98660.00
2022-10-31T16:14:08.276Z,98667.41
2022-10-31T16:16:43.082Z,98671.78
2022-10-31T16:19:20.095Z,98669.00
2022-10-31T16:21:52.610Z,98668.06
2022-10-31T16:24:27.212Z,98664.75
2022-10-31T16:26:57.319Z,98656.44
2022-10-31T16:29:28.611Z,98653.59
2022-10-31T16:31:56.537Z,98660.81
2022-10-31T16:34:26.896Z,98655.59
2022-10-31T16:36:56.397Z,98646.44
2022-10-31T16:39:24.140Z,98650.66
2022-10-31T16:41:54.350Z,98650.47
2022-10-31T16:44:25.712Z,98655.34
2022-10-31T16:47:16.238Z,98653.41
2022-10-31T16:49:44.703Z,98659.91
2022-10-31T16:52:14.136Z,98653.47
2022-10-31T16:54:44.335Z,98651.53
2022-10-31T16:57:18.002Z,98649.00
2022-10-31T16:59:48.279Z,98648.56
2022-10-31T17:02:18.779Z,98647.28
2022-10-31T17:04:50.900Z,98651.78
2022-10-31T17:07:23.672Z,98643.03
2022-10-31T17:09:51.612Z,98641.47
2022-10-31T17:12:24.102Z,98644.13
2022-10-31T17:14:53.716Z,98644.81
2022-10-31T17:17:21.409Z,98635.91
2022-10-31T17:19:49.858Z,98640.34
2022-10-31T17:22:17.743Z,98645.97
2022-10-31T17:24:46.841Z,98638.25
2022-10-31T17:27:14.595Z,98632.53
2022-10-31T17:29:42.300Z,98642.06
2022-10-31T17:32:10.019Z,98644.97
2022-10-31T17:34:39.834Z,98656.72
2022-10-31T17:37:07.710Z,98655.34
2022-10-31T17:39:35.419Z,98648.09
2022-10-31T17:42:05.092Z,98651.59
2022-10-31T17:44:32.842Z,98656.34
2022-10-31T17:47:00.583Z,98653.13
2022-10-31T17:49:28.741Z,98662.09
2022-10-31T17:51:56.647Z,98657.03
2022-10-31T17:54:24.365Z,98653.22
2022-10-31T17:56:52.852Z,98632.94
2022-10-31T17:59:24.292Z,98626.22
2022-10-31T18:01:52.077Z,98625.34
2022-10-31T18:04:19.933Z,98621.06
2022-10-31T18:06:48.460Z,98631.06
2022-10-31T18:09:16.419Z,98625.66
2022-10-31T18:11:44.255Z,98634.59
2022-10-31T18:14:12.200Z,98630.25
2022-10-31T18:21:07.769Z,98626.88
2022-10-31T18:23:35.566Z,98621.44
2022-10-31T18:26:03.394Z,98616.50
2022-10-31T18:28:31.376Z,98628.84
2022-10-31T18:31:00.376Z,98625.47
2022-10-31T18:33:28.378Z,98620.00
2022-10-31T18:35:56.213Z,98603.31
2022-10-31T18:38:25.728Z,98582.66
2022-10-31T18:40:53.600Z,98561.28
2022-10-31T18:43:21.347Z,98562.56
2022-10-31T18:45:52.299Z,98559.41
2022-10-31T18:48:23.726Z,98548.22
2022-10-31T18:50:51.629Z,98562.84
2022-10-31T18:53:19.348Z,98579.75
2022-10-31T18:55:50.233Z,98575.69
2022-10-31T18:58:18.737Z,98575.25
2022-10-31T19:00:46.820Z,98574.84
2022-10-31T19:03:15.304Z,98564.41
2022-10-31T19:05:43.049Z,98561.09
2022-10-31T19:08:11.326Z,98570.91
2022-10-31T19:10:40.105Z,98569.81
2022-10-31T19:13:09.918Z,98562.75
2022-10-31T19:15:37.660Z,98578.28
2022-10-31T19:18:05.794Z,98602.22
2022-10-31T19:20:33.767Z,98611.72
2022-10-31T19:23:01.739Z,98634.09
2022-10-31T19:25:29.907Z,98644.13
2022-10-31T19:27:57.645Z,98629.69
2022-10-31T19:30:26.820Z,98626.28
2022-10-31T19:32:55.682Z,98606.16
2022-10-31T19:35:23.389Z,98616.50
2022-10-31T19:37:51.278Z,98639.78
2022-10-31T19:40:19.579Z,98625.59
2022-10-31T19:42:47.334Z,98633.63
2022-10-31T19:45:15.236Z,98655.06
2022-10-31T19:47:44.318Z,98639.78
2022-10-31T19:50:12.023Z,98645.28
2022-10-31T19:52:41.808Z,98632.38
2022-10-31T19:55:10.265Z,98627.34
2022-10-31T20:00:28.561Z,98621.53
2022-10-31T20:02:57.850Z,98615.28
2022-10-31T20:05:28.042Z,98635.75
2022-10-31T20:07:56.850Z,98616.50
2022-10-31T20:10:25.178Z,98633.66
2022-10-31T20:12:55.717Z,98627.31
2022-10-31T20:15:24.036Z,98630.81
2022-10-31T20:17:51.817Z,98641.72
2022-10-31T20:20:23.467Z,98635.47
2022-10-31T20:22:51.223Z,98648.22
2022-10-31T20:25:19.202Z,98640.22
2022-10-31T20:27:46.917Z,98655.22
2022-10-31T20:30:15.156Z,98644.81
2022-10-31T20:32:47.530Z,98647.94
2022-10-31T20:35:18.243Z,98645.97
2022-10-31T20:37:47.308Z,98643.19
2022-10-31T20:40:15.138Z,98654.38
2022-10-31T20:42:42.832Z,98636.28
2022-10-31T20:45:11.431Z,98634.88
2022-10-31T20:47:39.243Z,98631.94
2022-10-31T20:50:09.428Z,98633.09
2022-10-31T20:52:37.325Z,98637.03
2022-10-31T20:55:07.014Z,98638.66
2022-10-31T20:57:35.307Z,98636.72
2022-10-31T21:00:03.115Z,98641.47
2022-10-31T21:02:31.157Z,98649.31
2022-10-31T21:04:59.000Z,98640.66
2022-10-31T21:07:26.797Z,98633.06
2022-10-31T21:09:54.506Z,98638.63
2022-10-31T21:12:23.537Z,98637.56
2022-10-31T21:14:51.352Z,98647.63
2022-10-31T21:17:19.076Z,98650.88
2022-10-31T21:19:46.853Z,98664.75
2022-10-31T21:22:14.570Z,98665.28
2022-10-31T21:24:42.424Z,98680.66
2022-10-31T21:27:12.437Z,98683.53
2022-10-31T21:29:41.794Z,98673.53
2022-10-31T21:32:09.616Z,98681.81
2022-10-31T21:34:37.909Z,98671.44
2022-10-31T21:37:05.770Z,98688.44
2022-10-31T21:39:33.543Z,98675.25
2022-10-31T21:42:01.298Z,98675.06
2022-10-31T21:44:29.022Z,98686.44
2022-10-31T21:46:58.092Z,98673.16
2022-10-31T21:49:25.867Z,98680.41
2022-10-31T21:51:53.548Z,98670.19
2022-10-31T21:54:31.243Z,98668.09
2022-10-31T21:57:01.466Z,98677.06
2022-10-31T21:59:29.281Z,98673.13
2022-10-31T22:02:00.493Z,98683.22
2022-10-31T22:04:28.874Z,98678.34
2022-10-31T22:06:56.641Z,98671.47
2022-10-31T22:09:24.374Z,98672.88
2022-10-31T22:11:52.162Z,98663.47
2022-10-31T22:14:22.097Z,98663.31
2022-10-31T22:16:49.858Z,98659.44
2022-10-31T22:19:18.951Z,98653.66
2022-10-31T22:21:49.090Z,98646.94
2022-10-31T22:24:17.770Z,98643.69
2022-10-31T22:26:45.657Z,98646.50
2022-10-31T22:29:15.394Z,98636.47
2022-10-31T22:31:45.272Z,98649.31
2022-10-31T22:34:16.820Z,98660.25
2022-10-31T22:36:46.322Z,98661.91
2022-10-31T22:39:14.721Z,98650.44
2022-10-31T22:41:42.830Z,98639.53
2022-10-31T22:44:12.971Z,98641.19
2022-10-31T22:46:41.010Z,98638.13
2022-10-31T22:49:11.256Z,98644.69
2022-10-31T22:51:40.941Z,98636.97
2022-10-31T22:54:13.723Z,98625.53
2022-10-31T22:56:41.599Z,98635.16
2022-10-31T22:59:13.712Z,98629.97
2022-10-31T23:01:42.146Z,98634.41
2022-10-31T23:06:43.057Z,98634.09
2022-10-31T23:09:15.905Z,98643.81
2022-10-31T23:11:44.314Z,98643.44
2022-10-31T23:14:13.940Z,98647.94
2022-10-31T23:16:44.225Z,98645.41
2022-10-31T23:19:14.232Z,98650.47
2022-10-31T23:22:00.937Z,98649.09
2022-10-31T23:24:34.469Z,98642.91
2022-10-31T23:27:09.215Z,98639.19
2022-10-31T23:29:43.537Z,98643.56
2022-10-31T23:32:16.749Z,98636.69
2022-10-31T23:34:46.681Z,98646.88
2022-10-31T23:37:15.403Z,98651.81
2022-10-31T23:39:45.037Z,98651.44
2022-10-31T23:42:16.006Z,98654.22
2022-10-31T23:44:44.078Z,98659.22
2022-10-31T23:47:12.372Z,98651.06
2022-10-31T23:49:40.375Z,98648.97
2022-10-31T23:52:08.558Z,98647.53
2022-10-31T23:54:36.719Z,98642.03
2022-10-31T23:57:06.174Z,98645.00
2022-10-31T23:59:34.140Z,98645.50
